Terminal Aerodrome Forecast
Issued by NWS

Home | Current Version | Previous Version | Graphics & Text | Print | Product List | Glossary On
Versions: 1 2 3 4 5 6 7 8 9 10 11 12 13
000
FTUS43 KICT 181120
TAFRSL
TAF
KRSL 181120Z 1812/1912 18008KT P6SM VCTS BKN080CB
     FM181400 21009KT P6SM SCT150
     FM181700 27009KT P6SM FEW150
     FM182000 34009KT P6SM FEW150
     FM190300 04005KT P6SM SCT250=

USA.gov is the U.S. government's official web portal to all federal, state and local government web resources and services.